Time;durP1;ratioP1;P1;durP2;ratioP2;P2;SDS_P1;SDS_P2;PMS_P1;PMS_P2;Temp;Humidity;BMP_temperature;BMP_pressure;BME280_temperature;BME280_humidity;BME280_pressure;Samples;Min_cycle;Max_cycle;Signal;HPM_P1;HPM_P2
2023/09/15 00:01:00;;;;;;;8.38;2.15;;;12.30;99.90;;;;;;5063534;28;20163;-55
2023/09/15 00:03:26;;;;;;;10.35;1.85;;;12.30;99.90;;;;;;5062611;28;20076;-52
2023/09/15 00:05:51;;;;;;;4.03;1.27;;;12.30;99.90;;;;;;5061020;28;20095;-52
2023/09/15 00:08:17;;;;;;;5.75;1.83;;;12.20;99.90;;;;;;5063779;28;20041;-51
2023/09/15 00:10:44;;;;;;;1.75;1.40;;;12.20;99.90;;;;;;5063981;28;20045;-50
2023/09/15 00:13:10;;;;;;;3.03;1.40;;;12.20;99.90;;;;;;5067835;28;20033;-52
2023/09/15 00:15:36;;;;;;;5.00;1.98;;;12.20;99.90;;;;;;5066392;28;20862;-51
2023/09/15 00:18:01;;;;;;;5.30;1.97;;;12.20;99.90;;;;;;5060081;28;20032;-52
2023/09/15 00:20:27;;;;;;;1.83;1.45;;;12.10;99.90;;;;;;5058699;28;20596;-51
2023/09/15 00:22:55;;;;;;;2.63;2.42;;;12.10;99.90;;;;;;5053548;28;20033;-52
2023/09/15 00:25:29;;;;;;;6.28;1.40;;;12.10;99.90;;;;;;5056533;28;20108;-51
2023/09/15 00:28:00;;;;;;;4.95;1.60;;;12.10;99.90;;;;;;5055148;28;20075;-50
2023/09/15 00:30:27;;;;;;;3.55;1.80;;;12.10;99.90;;;;;;5060030;28;20544;-55
2023/09/15 00:32:54;;;;;;;3.70;1.80;;;12.10;99.90;;;;;;5065592;28;20364;-53
2023/09/15 00:35:22;;;;;;;2.45;1.10;;;12.10;99.90;;;;;;5066333;28;20097;-49
2023/09/15 00:37:49;;;;;;;4.63;1.77;;;12.10;99.90;;;;;;5065569;28;20045;-53
2023/09/15 00:40:20;;;;;;;1.80;1.70;;;12.00;99.90;;;;;;5067180;28;20044;-50
2023/09/15 00:42:47;;;;;;;2.50;1.35;;;12.00;99.90;;;;;;5063314;28;20510;-52
2023/09/15 00:45:19;;;;;;;2.33;1.50;;;12.00;99.90;;;;;;5069162;28;20459;-49
2023/09/15 00:47:49;;;;;;;3.40;2.08;;;11.90;99.90;;;;;;5064364;28;20569;-52
2023/09/15 00:50:17;;;;;;;3.80;1.50;;;11.80;99.90;;;;;;5059118;28;20495;-50
2023/09/15 00:52:49;;;;;;;2.78;1.80;;;11.80;99.90;;;;;;5053531;28;20573;-51
2023/09/15 00:55:15;;;;;;;5.72;1.70;;;11.70;99.90;;;;;;5060836;28;20116;-52
2023/09/15 00:57:41;;;;;;;3.13;1.20;;;11.70;99.90;;;;;;5069737;28;20055;-53
2023/09/15 01:00:12;;;;;;;2.15;1.35;;;11.60;99.90;;;;;;5061290;28;20029;-54
2023/09/15 01:02:39;;;;;;;5.40;1.25;;;11.60;99.90;;;;;;5061361;28;20044;-51
2023/09/15 01:05:05;;;;;;;1.83;1.35;;;11.60;99.90;;;;;;5059539;28;20048;-50
2023/09/15 01:07:31;;;;;;;;;;;11.50;99.90;;;;;;5056486;28;20047;-49
2023/09/15 01:09:56;;;;;;;2.17;1.55;;;11.50;99.90;;;;;;5058648;28;19924;-49
2023/09/15 01:12:22;;;;;;;2.42;1.42;;;11.50;99.90;;;;;;5061840;28;20110;-50
2023/09/15 01:14:49;;;;;;;3.38;1.23;;;11.50;99.90;;;;;;5064766;28;20042;-51
2023/09/15 01:17:23;;;;;;;5.07;1.67;;;11.50;99.90;;;;;;5065730;28;20423;-51
2023/09/15 01:20:00;;;;;;;9.23;1.45;;;11.50;99.90;;;;;;5067675;28;20033;-51
2023/09/15 01:22:47;;;;;;;;;;;11.50;99.90;;;;;;5068987;28;20063;-48
2023/09/15 01:25:25;;;;;;;5.10;1.58;;;11.60;99.90;;;;;;5068637;28;20020;-46
2023/09/15 01:28:19;;;;;;;5.13;2.00;;;11.50;99.90;;;;;;5068556;28;20098;-48
2023/09/15 01:30:49;;;;;;;4.95;1.60;;;11.50;99.90;;;;;;5064611;28;20048;-50
2023/09/15 01:33:16;;;;;;;4.43;1.55;;;11.40;99.90;;;;;;5059911;28;20090;-46
2023/09/15 01:35:42;;;;;;;5.82;2.00;;;11.40;99.90;;;;;;5066815;28;20038;-49
2023/09/15 01:38:07;;;;;;;2.40;1.00;;;11.40;99.90;;;;;;5072621;28;20040;-47
2023/09/15 01:40:33;;;;;;;2.05;0.88;;;11.40;99.90;;;;;;5072145;28;20044;-47
2023/09/15 01:42:59;;;;;;;3.25;0.63;;;11.40;99.90;;;;;;5072257;28;20506;-48
2023/09/15 01:45:24;;;;;;;1.55;0.80;;;11.40;99.90;;;;;;5071037;28;20037;-48
2023/09/15 01:47:51;;;;;;;1.83;0.73;;;11.40;99.90;;;;;;5071467;28;20486;-49
2023/09/15 01:50:17;;;;;;;;;;;11.30;99.90;;;;;;5072618;28;20055;-48
2023/09/15 01:52:44;;;;;;;1.88;0.55;;;11.30;99.90;;;;;;5071809;28;19927;-48
2023/09/15 01:55:10;;;;;;;1.40;0.70;;;11.30;99.90;;;;;;5072038;28;20055;-49
2023/09/15 01:57:36;;;;;;;4.22;1.45;;;11.30;99.90;;;;;;5071802;28;20503;-48
2023/09/15 02:00:03;;;;;;;4.03;1.73;;;11.30;99.90;;;;;;5070738;28;20040;-48
2023/09/15 02:02:29;;;;;;;4.30;2.03;;;11.30;99.90;;;;;;5070424;28;20487;-51
2023/09/15 02:04:54;;;;;;;7.10;2.43;;;11.30;99.90;;;;;;5072040;28;20047;-51
2023/09/15 02:07:20;;;;;;;4.45;1.38;;;11.40;99.90;;;;;;5071523;28;20275;-47
2023/09/15 02:09:45;;;;;;;1.20;0.70;;;11.40;99.90;;;;;;5070199;28;20040;-47
2023/09/15 02:12:11;;;;;;;4.75;1.10;;;11.30;99.90;;;;;;5071260;28;20411;-49
2023/09/15 02:14:37;;;;;;;2.20;1.00;;;11.20;99.90;;;;;;5071599;28;20441;-51
2023/09/15 02:17:04;;;;;;;3.23;1.10;;;11.20;99.90;;;;;;5071641;28;20302;-51
2023/09/15 02:19:30;;;;;;;2.72;1.27;;;11.20;99.90;;;;;;5071343;28;20272;-48
2023/09/15 02:21:56;;;;;;;4.03;2.25;;;11.20;99.90;;;;;;5070069;28;20071;-52
2023/09/15 02:24:22;;;;;;;2.92;1.30;;;11.20;99.90;;;;;;5071439;28;20127;-48
2023/09/15 02:26:47;;;;;;;4.15;1.50;;;11.20;99.90;;;;;;5071721;28;20490;-48
2023/09/15 02:29:14;;;;;;;2.33;2.03;;;11.20;99.90;;;;;;5059279;28;20041;-47
2023/09/15 02:31:41;;;;;;;4.15;1.98;;;11.10;99.90;;;;;;5069886;28;20302;-52
2023/09/15 02:34:06;;;;;;;;;;;11.10;99.90;;;;;;5069684;28;20098;-48
2023/09/15 02:36:32;;;;;;;4.47;1.70;;;11.10;99.90;;;;;;5071260;28;19920;-49
2023/09/15 02:38:57;;;;;;;2.75;1.65;;;11.10;99.90;;;;;;5069836;28;20032;-48
2023/09/15 02:41:23;;;;;;;3.90;1.70;;;11.10;99.90;;;;;;5062895;28;20044;-51
2023/09/15 02:43:49;;;;;;;7.80;2.30;;;11.10;99.90;;;;;;5059757;28;20287;-50
2023/09/15 02:46:14;;;;;;;4.20;2.10;;;11.10;99.90;;;;;;5058692;28;20288;-49
2023/09/15 02:48:43;;;;;;;4.05;2.08;;;11.10;99.90;;;;;;5070941;28;20052;-49
2023/09/15 02:51:09;;;;;;;3.63;1.45;;;11.00;99.90;;;;;;5070832;28;20094;-51
2023/09/15 02:53:34;;;;;;;3.05;1.60;;;11.00;99.90;;;;;;5070937;28;20119;-48
2023/09/15 02:56:04;;;;;;;2.60;1.90;;;10.90;99.90;;;;;;5070673;28;20075;-49
2023/09/15 02:58:33;;;;;;;4.07;2.42;;;10.90;99.90;;;;;;5070339;28;20286;-49
2023/09/15 03:00:59;;;;;;;5.90;2.33;;;10.90;99.90;;;;;;5070747;28;20078;-49
2023/09/15 03:03:24;;;;;;;8.43;2.63;;;10.90;99.90;;;;;;5070787;28;20080;-50
2023/09/15 03:06:07;;;;;;;4.70;2.15;;;10.90;99.90;;;;;;5070722;28;20044;-49
2023/09/15 03:08:33;;;;;;;6.28;2.55;;;10.90;99.90;;;;;;5070507;28;20491;-49
2023/09/15 03:10:59;;;;;;;6.40;2.50;;;10.90;99.90;;;;;;5070379;28;20072;-47
2023/09/15 03:13:25;;;;;;;4.55;2.90;;;10.90;99.90;;;;;;5070428;28;20090;-52
2023/09/15 03:15:51;;;;;;;3.78;2.83;;;11.00;99.90;;;;;;5070242;28;20062;-49
2023/09/15 03:18:17;;;;;;;2.55;2.33;;;11.00;99.90;;;;;;5070377;28;20093;-51
2023/09/15 03:20:43;;;;;;;3.67;1.85;;;11.00;99.90;;;;;;5069822;28;20419;-49
2023/09/15 03:23:08;;;;;;;2.55;1.75;;;11.00;99.90;;;;;;5068432;28;20036;-49
2023/09/15 03:25:34;;;;;;;2.88;2.03;;;11.00;99.90;;;;;;5067630;28;20048;-47
2023/09/15 03:28:00;;;;;;;3.13;2.00;;;10.90;99.90;;;;;;5069078;28;20052;-51
2023/09/15 03:30:25;;;;;;;3.75;1.90;;;10.90;99.90;;;;;;5066343;28;20048;-53
2023/09/15 03:32:51;;;;;;;6.43;1.95;;;10.80;99.90;;;;;;5068392;28;20037;-49
2023/09/15 03:35:16;;;;;;;3.87;2.30;;;10.80;99.90;;;;;;5071394;28;20040;-52
2023/09/15 03:37:42;;;;;;;5.50;2.85;;;10.80;99.90;;;;;;5075749;28;20350;-49
2023/09/15 03:40:11;;;;;;;5.23;2.80;;;10.70;99.90;;;;;;5061822;28;20074;-52
2023/09/15 03:42:38;;;;;;;7.03;2.00;;;10.70;99.90;;;;;;5068006;28;20048;-48
2023/09/15 03:45:08;;;;;;;4.13;2.58;;;10.70;99.90;;;;;;5065928;28;20032;-48
2023/09/15 03:47:34;;;;;;;5.10;2.45;;;10.60;99.90;;;;;;5068277;28;20135;-48
2023/09/15 03:50:00;;;;;;;6.47;2.53;;;10.60;99.90;;;;;;5055618;28;20550;-48
2023/09/15 03:52:26;;;;;;;7.70;2.40;;;10.50;99.90;;;;;;5055951;28;20384;-47
2023/09/15 03:54:51;;;;;;;2.07;1.83;;;10.50;99.90;;;;;;5069545;28;20047;-47
2023/09/15 03:57:17;;;;;;;3.38;1.77;;;10.50;99.90;;;;;;5069696;28;20115;-47
2023/09/15 03:59:43;;;;;;;2.80;2.60;;;10.50;99.90;;;;;;5069309;28;20036;-49
2023/09/15 04:02:08;;;;;;;5.10;2.13;;;10.50;99.90;;;;;;5069656;28;20849;-47
2023/09/15 04:04:34;;;;;;;3.03;2.40;;;10.50;99.90;;;;;;5069957;28;20133;-47
2023/09/15 04:06:59;;;;;;;3.38;2.70;;;10.50;99.90;;;;;;5069422;28;20552;-50
2023/09/15 04:09:25;;;;;;;4.53;2.73;;;10.40;99.90;;;;;;5067545;28;20048;-49
2023/09/15 04:11:51;;;;;;;2.57;2.30;;;10.40;99.90;;;;;;5069639;28;20665;-48
2023/09/15 04:14:17;;;;;;;4.93;2.47;;;10.40;99.90;;;;;;5069662;28;20745;-48
2023/09/15 04:16:43;;;;;;;4.55;2.92;;;10.50;99.90;;;;;;5069308;28;20032;-49
2023/09/15 04:19:09;;;;;;;3.42;2.58;;;10.50;99.90;;;;;;5069205;28;20039;-51
2023/09/15 04:21:37;;;;;;;4.55;2.58;;;10.50;99.90;;;;;;5069130;28;20043;-48
2023/09/15 04:24:03;;;;;;;6.35;2.63;;;10.50;99.90;;;;;;5067915;28;20048;-53
2023/09/15 04:26:29;;;;;;;3.03;2.03;;;10.50;99.90;;;;;;5069308;28;20053;-49
2023/09/15 04:28:54;;;;;;;3.88;2.25;;;10.50;99.90;;;;;;5068988;28;20105;-49
2023/09/15 04:31:20;;;;;;;5.15;2.53;;;10.50;99.90;;;;;;5069194;28;20392;-50
2023/09/15 04:33:48;;;;;;;4.70;2.80;;;10.50;99.90;;;;;;5069214;28;20146;-51
2023/09/15 04:36:13;;;;;;;4.10;2.35;;;10.50;99.90;;;;;;5067927;28;20040;-49
2023/09/15 04:38:39;;;;;;;6.28;2.72;;;10.40;99.90;;;;;;5068228;28;20562;-52
2023/09/15 04:41:05;;;;;;;7.43;3.28;;;10.40;99.90;;;;;;5069318;28;20047;-52
2023/09/15 04:43:31;;;;;;;3.03;2.58;;;10.40;99.90;;;;;;5069101;28;20522;-48
2023/09/15 04:45:57;;;;;;;3.63;2.90;;;10.40;99.90;;;;;;5069344;28;20045;-50
2023/09/15 04:48:23;;;;;;;6.10;2.05;;;10.40;99.90;;;;;;5068987;28;20036;-52
2023/09/15 04:50:49;;;;;;;5.53;2.30;;;10.30;99.90;;;;;;5068522;28;20410;-53
2023/09/15 04:53:15;;;;;;;3.93;2.20;;;10.30;99.90;;;;;;5048012;28;20044;-53
2023/09/15 04:55:40;;;;;;;2.78;2.40;;;10.30;99.90;;;;;;5059017;28;21473;-48
2023/09/15 04:58:06;;;;;;;3.97;2.63;;;10.30;99.90;;;;;;5069049;28;20047;-49
2023/09/15 05:00:34;;;;;;;4.85;2.53;;;10.30;99.90;;;;;;5067233;28;20561;-53
2023/09/15 05:03:01;;;;;;;2.90;2.60;;;10.30;99.90;;;;;;5068172;28;20068;-50
2023/09/15 05:05:27;;;;;;;9.40;2.63;;;10.30;99.90;;;;;;5072924;28;20043;-52
2023/09/15 05:07:52;;;;;;;4.13;2.55;;;10.30;99.90;;;;;;5072329;28;20138;-50
2023/09/15 05:10:18;;;;;;;5.57;3.38;;;10.30;99.90;;;;;;5073016;28;20118;-48
2023/09/15 05:12:44;;;;;;;2.60;2.40;;;10.30;99.90;;;;;;5072374;28;20580;-50
2023/09/15 05:15:10;;;;;;;4.60;2.58;;;10.30;99.90;;;;;;5072982;28;20119;-53
2023/09/15 05:17:37;;;;;;;5.63;2.90;;;10.30;99.90;;;;;;5072994;28;20083;-50
2023/09/15 05:20:03;;;;;;;4.22;2.78;;;10.30;99.90;;;;;;5072644;28;20044;-51
2023/09/15 05:22:28;;;;;;;12.65;3.13;;;10.30;99.90;;;;;;5070455;28;20040;-50
2023/09/15 05:24:55;;;;;;;6.78;3.25;;;10.20;99.90;;;;;;5064968;28;20047;-53
2023/09/15 05:27:20;;;;;;;;;;;10.20;99.90;;;;;;5067873;28;20110;-49
2023/09/15 05:29:46;;;;;;;6.20;3.55;;;10.20;99.90;;;;;;5067691;28;20167;-48
2023/09/15 05:32:11;;;;;;;7.60;3.55;;;10.10;99.90;;;;;;5066412;28;20045;-52
2023/09/15 05:34:38;;;;;;;9.55;3.50;;;10.10;99.90;;;;;;5069139;28;20032;-53
2023/09/15 05:37:03;;;;;;;;;;;10.10;99.90;;;;;;5072403;28;20491;-49
2023/09/15 05:39:31;;;;;;;4.65;3.28;;;10.10;99.90;;;;;;5072060;28;19916;-48
2023/09/15 05:41:56;;;;;;;4.03;3.05;;;10.10;99.90;;;;;;5069461;28;20083;-48
2023/09/15 05:44:22;;;;;;;4.35;2.78;;;10.00;99.90;;;;;;5067289;28;20072;-48
2023/09/15 05:46:48;;;;;;;4.23;3.50;;;10.00;99.90;;;;;;5070372;28;20071;-49
2023/09/15 05:49:13;;;;;;;3.65;3.25;;;10.00;99.90;;;;;;5060355;28;20288;-50
2023/09/15 05:51:39;;;;;;;4.18;3.78;;;10.10;99.90;;;;;;5061890;28;20041;-50
2023/09/15 05:54:05;;;;;;;8.82;3.95;;;10.10;99.90;;;;;;5067036;28;20465;-49
2023/09/15 05:56:31;;;;;;;6.25;3.67;;;10.10;99.90;;;;;;5059450;28;20501;-48
2023/09/15 05:58:58;;;;;;;7.38;3.83;;;10.20;99.90;;;;;;5056686;28;20525;-49
2023/09/15 06:01:24;;;;;;;6.53;3.40;;;10.40;99.90;;;;;;5064442;28;20045;-47
2023/09/15 06:03:49;;;;;;;4.43;3.03;;;10.60;99.90;;;;;;5068753;28;20040;-52
2023/09/15 06:06:16;;;;;;;9.57;3.22;;;10.90;99.90;;;;;;5064526;28;20036;-48
2023/09/15 06:08:42;;;;;;;3.47;3.15;;;11.30;99.90;;;;;;5059046;28;20040;-48
2023/09/15 06:11:08;;;;;;;6.05;2.85;;;11.60;99.90;;;;;;5062306;28;20047;-49
2023/09/15 06:13:34;;;;;;;5.55;3.75;;;12.00;99.90;;;;;;5064526;28;20029;-49
2023/09/15 06:16:00;;;;;;;6.38;3.20;;;12.30;99.90;;;;;;5068217;28;20046;-51
2023/09/15 06:18:25;;;;;;;15.20;3.92;;;12.60;99.90;;;;;;5076671;28;20068;-52
2023/09/15 06:20:55;;;;;;;7.22;3.78;;;12.80;99.90;;;;;;5070610;28;20032;-53
2023/09/15 06:23:21;;;;;;;5.47;3.97;;;12.70;99.90;;;;;;5070707;28;20040;-50
2023/09/15 06:25:46;;;;;;;8.98;4.50;;;12.60;99.90;;;;;;5071720;28;20041;-48
2023/09/15 06:28:12;;;;;;;7.13;3.88;;;12.50;99.90;;;;;;5071567;28;20071;-49
2023/09/15 06:30:38;;;;;;;10.70;4.97;;;12.40;99.90;;;;;;5068190;28;20120;-49
2023/09/15 06:33:03;;;;;;;4.68;4.28;;;12.40;99.90;;;;;;5071366;28;20502;-48
2023/09/15 06:35:29;;;;;;;10.15;5.43;;;12.30;99.90;;;;;;5071498;28;20041;-47
2023/09/15 06:37:55;;;;;;;7.37;4.80;;;12.30;99.90;;;;;;5068163;28;20033;-48
2023/09/15 06:40:20;;;;;;;7.70;3.70;;;12.40;99.90;;;;;;5054949;28;20036;-50
2023/09/15 06:42:46;;;;;;;4.72;4.22;;;12.40;99.90;;;;;;5052320;28;20045;-49
2023/09/15 06:45:12;;;;;;;8.85;4.70;;;12.40;99.90;;;;;;5053935;28;20063;-49
2023/09/15 06:47:38;;;;;;;8.70;4.60;;;12.50;99.90;;;;;;5057370;28;20033;-50
2023/09/15 06:50:04;;;;;;;6.47;4.97;;;12.50;99.90;;;;;;5051597;28;20052;-49
2023/09/15 06:52:30;;;;;;;;;;;12.60;99.90;;;;;;5055324;28;20045;-47
2023/09/15 06:54:56;;;;;;;6.90;4.53;;;12.60;99.90;;;;;;5060277;28;19974;-51
2023/09/15 06:57:22;;;;;;;8.73;5.05;;;12.70;99.90;;;;;;5053650;28;20131;-50
2023/09/15 06:59:48;;;;;;;7.50;4.97;;;12.70;99.90;;;;;;5059638;28;20036;-50
2023/09/15 07:02:13;;;;;;;9.65;5.30;;;12.80;99.90;;;;;;5048451;28;20040;-52
2023/09/15 07:04:39;;;;;;;10.87;5.03;;;12.80;99.90;;;;;;5052528;28;20290;-52
2023/09/15 07:07:04;;;;;;;4.95;3.95;;;12.80;99.90;;;;;;5052125;28;20287;-52
2023/09/15 07:09:30;;;;;;;11.85;5.15;;;12.90;99.90;;;;;;5050748;28;20048;-53
2023/09/15 07:11:55;;;;;;;12.20;5.15;;;12.90;99.90;;;;;;5052605;28;20068;-50
2023/09/15 07:14:21;;;;;;;6.82;4.30;;;12.90;99.90;;;;;;5047419;28;20037;-53
2023/09/15 07:16:48;;;;;;;6.75;4.80;;;13.00;99.90;;;;;;5061451;28;20079;-51
2023/09/15 07:19:14;;;;;;;9.93;4.88;;;13.00;99.90;;;;;;5056514;28;20056;-52
2023/09/15 07:21:41;;;;;;;7.80;3.88;;;13.20;99.90;;;;;;5056750;28;20503;-50
2023/09/15 07:24:10;;;;;;;6.63;3.92;;;13.30;99.90;;;;;;5050022;28;20079;-50
2023/09/15 07:26:37;;;;;;;5.45;4.65;;;13.40;99.90;;;;;;5054232;28;20150;-53
2023/09/15 07:29:03;;;;;;;6.97;4.97;;;13.50;99.90;;;;;;5061566;28;20083;-51
2023/09/15 07:31:33;;;;;;;;;;;13.60;99.90;;;;;;5065793;28;20044;-52
2023/09/15 07:33:59;;;;;;;8.23;4.55;;;13.70;99.90;;;;;;5062238;28;20027;-52
2023/09/15 07:36:24;;;;;;;23.50;5.07;;;13.80;99.90;;;;;;5063800;28;20123;-54
2023/09/15 07:38:50;;;;;;;8.38;4.13;;;13.90;99.90;;;;;;5069909;28;20278;-52
2023/09/15 07:41:15;;;;;;;8.30;4.30;;;14.00;99.90;;;;;;5061272;28;20044;-54
2023/09/15 07:43:41;;;;;;;6.88;4.18;;;14.10;99.90;;;;;;5062420;28;20040;-54
2023/09/15 07:46:08;;;;;;;5.85;4.43;;;14.20;99.90;;;;;;5053505;28;20064;-52
2023/09/15 07:48:33;;;;;;;10.13;5.10;;;14.30;99.90;;;;;;5047397;28;20407;-51
2023/09/15 07:50:59;;;;;;;8.40;4.10;;;14.30;99.90;;;;;;5047122;28;20048;-51
2023/09/15 07:53:25;;;;;;;8.15;4.18;;;14.50;99.90;;;;;;5050197;28;20032;-54
2023/09/15 07:55:51;;;;;;;5.95;4.40;;;14.50;99.90;;;;;;5045522;28;20106;-53
2023/09/15 07:58:16;;;;;;;7.15;4.35;;;14.70;99.90;;;;;;5049933;28;20082;-54
2023/09/15 08:00:42;;;;;;;10.77;3.95;;;14.80;99.90;;;;;;5046697;28;20045;-52
2023/09/15 08:03:08;;;;;;;53.53;5.95;;;14.90;99.90;;;;;;5042006;28;20377;-52
2023/09/15 08:05:34;;;;;;;9.55;4.22;;;15.00;99.90;;;;;;5041422;28;20033;-53
2023/09/15 08:07:59;;;;;;;245.68;27.98;;;15.10;99.90;;;;;;5046350;28;20670;-50
2023/09/15 08:10:28;;;;;;;7.43;3.25;;;15.10;99.90;;;;;;5046842;28;20384;-52
2023/09/15 08:12:53;;;;;;;8.50;3.80;;;15.30;99.90;;;;;;5045998;28;20556;-54
2023/09/15 08:15:20;;;;;;;8.85;4.07;;;15.40;99.90;;;;;;5049128;28;20029;-51
2023/09/15 08:17:47;;;;;;;6.25;3.38;;;15.50;99.90;;;;;;5049331;28;20042;-54
2023/09/15 08:20:13;;;;;;;102.18;12.25;;;15.50;99.90;;;;;;5048787;28;20068;-52
2023/09/15 08:22:39;;;;;;;8.57;3.28;;;15.70;99.90;;;;;;5050944;28;20411;-50
2023/09/15 08:25:06;;;;;;;8.15;3.22;;;15.80;99.90;;;;;;5053012;28;20042;-53
2023/09/15 08:27:31;;;;;;;;;;;15.90;99.90;;;;;;5051334;28;20047;-53
2023/09/15 08:29:57;;;;;;;6.78;2.70;;;16.00;99.90;;;;;;5054941;28;19924;-54
2023/09/15 08:32:22;;;;;;;9.90;3.63;;;16.10;99.90;;;;;;5051963;28;20491;-51
2023/09/15 08:34:48;;;;;;;4.72;2.80;;;16.20;99.90;;;;;;5057281;28;20040;-52
2023/09/15 08:37:16;;;;;;;9.10;2.85;;;16.30;99.90;;;;;;5052856;28;20033;-54
2023/09/15 08:39:42;;;;;;;6.95;3.03;;;16.50;99.90;;;;;;5048605;28;20040;-52
2023/09/15 08:42:19;;;;;;;8.00;2.72;;;16.50;99.90;;;;;;5052852;28;20032;-54
2023/09/15 08:44:45;;;;;;;7.45;3.10;;;16.60;99.90;;;;;;5057125;28;20041;-54
2023/09/15 08:47:11;;;;;;;6.60;2.95;;;16.70;99.90;;;;;;5052104;28;20393;-54
2023/09/15 08:49:38;;;;;;;5.03;2.53;;;16.80;99.90;;;;;;5051581;28;20067;-51
2023/09/15 08:52:04;;;;;;;6.28;2.85;;;16.90;99.90;;;;;;5048217;28;20040;-52
2023/09/15 08:54:34;;;;;;;5.10;2.55;;;17.00;99.90;;;;;;5055403;28;20044;-52
2023/09/15 08:57:01;;;;;;;6.60;2.15;;;17.10;99.90;;;;;;5048938;28;20119;-51
2023/09/15 08:59:27;;;;;;;9.63;2.78;;;17.10;99.90;;;;;;5044618;28;20046;-52
2023/09/15 09:01:52;;;;;;;;;;;17.20;99.90;;;;;;5057289;28;20071;-53
2023/09/15 09:04:18;;;;;;;8.23;2.72;;;17.30;99.90;;;;;;5049756;28;19960;-53
2023/09/15 09:06:45;;;;;;;4.55;2.15;;;17.40;99.90;;;;;;5047064;28;20041;-50
2023/09/15 09:09:13;;;;;;;6.18;2.47;;;17.50;99.90;;;;;;5044559;28;20058;-54
2023/09/15 09:11:39;;;;;;;4.30;2.20;;;17.60;99.90;;;;;;5041982;28;20046;-54
2023/09/15 09:14:11;;;;;;;11.23;3.42;;;17.70;99.90;;;;;;5050550;28;20395;-51
2023/09/15 09:16:38;;;;;;;6.93;2.55;;;17.70;99.90;;;;;;5051697;28;20294;-52
2023/09/15 09:19:06;;;;;;;7.88;1.88;;;17.80;99.90;;;;;;5039184;28;20100;-53
2023/09/15 09:21:34;;;;;;;6.57;2.70;;;17.90;99.90;;;;;;5044274;28;20064;-54
2023/09/15 09:24:00;;;;;;;2.88;1.63;;;18.00;99.90;;;;;;5046997;28;20045;-54
2023/09/15 09:26:26;;;;;;;5.43;1.52;;;18.00;99.90;;;;;;5051177;28;20094;-52
2023/09/15 09:28:57;;;;;;;;;;;18.10;99.90;;;;;;5049750;28;20068;-53
2023/09/15 09:31:24;;;;;;;5.30;1.55;;;18.20;99.90;;;;;;5029164;28;19929;-55
2023/09/15 09:33:50;;;;;;;8.05;1.85;;;18.20;99.90;;;;;;5047759;28;20130;-54
2023/09/15 09:36:17;;;;;;;4.57;1.95;;;18.30;99.90;;;;;;5046781;28;20072;-55
2023/09/15 09:38:44;;;;;;;6.68;1.95;;;18.30;99.90;;;;;;5051013;28;20119;-54
2023/09/15 09:41:11;;;;;;;9.18;2.35;;;18.40;99.90;;;;;;5052249;28;20467;-53
2023/09/15 09:43:42;;;;;;;6.47;2.55;;;18.50;99.90;;;;;;5052190;28;20309;-53
2023/09/15 09:46:10;;;;;;;7.72;1.95;;;18.50;99.90;;;;;;5052053;28;20040;-53
2023/09/15 09:48:36;;;;;;;6.75;2.17;;;18.60;99.90;;;;;;5051583;28;20487;-54
2023/09/15 09:51:04;;;;;;;7.22;1.65;;;18.60;99.90;;;;;;5050609;28;20395;-54
2023/09/15 09:53:33;;;;;;;4.43;1.77;;;18.70;99.90;;;;;;5052027;28;20064;-54
2023/09/15 09:56:04;;;;;;;5.70;1.75;;;18.70;99.90;;;;;;5055877;28;20090;-53
2023/09/15 09:58:36;;;;;;;7.32;1.95;;;18.80;99.90;;;;;;5051657;28;20046;-54
2023/09/15 10:01:09;;;;;;;7.75;1.88;;;18.90;99.90;;;;;;5053888;28;20391;-53
2023/09/15 10:03:35;;;;;;;8.95;2.00;;;19.00;99.90;;;;;;5052924;28;20498;-53
2023/09/15 10:06:03;;;;;;;5.32;2.00;;;19.00;99.90;;;;;;5054929;28;20131;-55
2023/09/15 10:08:30;;;;;;;3.78;1.55;;;19.10;99.90;;;;;;5048972;28;20043;-54
2023/09/15 10:10:57;;;;;;;4.32;1.52;;;19.20;99.90;;;;;;5046333;28;20514;-54
2023/09/15 10:13:24;;;;;;;5.65;1.20;;;19.20;99.90;;;;;;5050416;28;20064;-55
2023/09/15 10:15:51;;;;;;;4.40;1.77;;;19.30;99.90;;;;;;5048811;28;20483;-51
2023/09/15 10:18:19;;;;;;;5.70;1.27;;;19.40;99.90;;;;;;5055089;28;20359;-52
2023/09/15 10:20:51;;;;;;;3.97;1.27;;;19.40;99.90;;;;;;5053136;28;20044;-51
2023/09/15 10:23:17;;;;;;;3.70;1.48;;;19.40;99.90;;;;;;5055535;28;20045;-51
2023/09/15 10:25:52;;;;;;;3.75;1.55;;;19.50;99.90;;;;;;5052234;28;20043;-53
2023/09/15 10:28:19;;;;;;;6.13;1.58;;;19.60;99.90;;;;;;5053390;28;20125;-52
2023/09/15 10:30:45;;;;;;;5.85;1.45;;;19.70;99.90;;;;;;5051198;28;20035;-53
2023/09/15 10:33:12;;;;;;;7.13;1.42;;;19.80;99.90;;;;;;5046825;28;20048;-54
2023/09/15 10:35:43;;;;;;;5.75;1.80;;;19.90;99.90;;;;;;5049180;28;20056;-52
2023/09/15 10:38:09;;;;;;;4.60;1.63;;;19.90;99.90;;;;;;5052751;28;20052;-54
2023/09/15 10:40:49;;;;;;;4.18;1.65;;;20.00;99.90;;;;;;5055329;28;20495;-53
2023/09/15 10:43:17;;;;;;;3.65;1.33;;;19.90;99.90;;;;;;5052249;28;20033;-53
2023/09/15 10:46:03;;;;;;;2.90;0.98;;;20.00;99.90;;;;;;5053527;28;20741;-53
2023/09/15 10:48:48;;;;;;;7.40;1.50;;;20.00;99.90;;;;;;5053115;28;20455;-50
2023/09/15 10:51:18;;;;;;;4.20;1.17;;;20.10;99.90;;;;;;5051931;28;20439;-51
2023/09/15 10:54:04;;;;;;;4.60;1.52;;;20.20;99.90;;;;;;5046401;28;20140;-52
2023/09/15 10:56:32;;;;;;;2.97;1.40;;;20.30;99.90;;;;;;5052968;28;20041;-52
2023/09/15 10:58:58;;;;;;;4.78;1.63;;;20.30;99.90;;;;;;5047876;28;20051;-54
2023/09/15 11:01:23;;;;;;;4.20;1.75;;;20.30;99.90;;;;;;5047958;28;20131;-53
2023/09/15 11:03:49;;;;;;;;;;;20.30;99.90;;;;;;5046951;28;20044;-52
2023/09/15 11:06:16;;;;;;;5.07;1.60;;;20.30;99.90;;;;;;5051626;28;19921;-53
2023/09/15 11:08:42;;;;;;;4.35;1.30;;;20.40;99.90;;;;;;5047997;28;20473;-54
2023/09/15 11:11:10;;;;;;;5.28;1.45;;;20.40;99.90;;;;;;5049861;28;20037;-53
2023/09/15 11:13:37;;;;;;;8.45;1.23;;;20.50;99.90;;;;;;5050026;28;20102;-52
2023/09/15 11:16:03;;;;;;;6.40;1.20;;;20.50;99.90;;;;;;5044334;28;20037;-52
2023/09/15 11:18:35;;;;;;;;;;;20.50;99.90;;;;;;5042404;28;20029;-53
2023/09/15 11:21:01;;;;;;;4.78;0.93;;;20.50;99.90;;;;;;5044720;28;19925;-52
2023/09/15 11:23:28;;;;;;;5.05;1.25;;;20.60;99.90;;;;;;5043327;28;20545;-53
2023/09/15 11:26:07;;;;;;;7.50;0.98;;;20.70;99.90;;;;;;5046027;28;20056;-52
2023/09/15 11:28:34;;;;;;;4.53;1.30;;;20.80;99.90;;;;;;5048579;28;20036;-50
2023/09/15 11:31:02;;;;;;;2.42;1.08;;;20.90;99.90;;;;;;5048037;28;20037;-50
2023/09/15 11:33:29;;;;;;;4.75;1.95;;;20.80;99.90;;;;;;5054889;28;20094;-52
2023/09/15 11:35:56;;;;;;;2.42;1.27;;;20.80;99.90;;;;;;5050276;28;20040;-50
2023/09/15 11:38:22;;;;;;;6.18;1.50;;;20.80;99.90;;;;;;5044506;28;20539;-53
2023/09/15 11:40:49;;;;;;;2.97;0.82;;;20.80;99.90;;;;;;5046327;28;20064;-49
2023/09/15 11:43:15;;;;;;;5.78;1.63;;;20.90;99.90;;;;;;5039961;28;20423;-52
2023/09/15 11:45:42;;;;;;;4.00;1.40;;;21.00;99.90;;;;;;5046408;28;20037;-50
2023/09/15 11:48:10;;;;;;;3.47;1.20;;;21.00;99.90;;;;;;5048818;28;20071;-55
2023/09/15 11:50:36;;;;;;;3.55;1.55;;;21.00;99.90;;;;;;5046066;28;20446;-53
2023/09/15 11:53:02;;;;;;;;;;;21.00;99.90;;;;;;5041030;28;20044;-54
2023/09/15 11:55:28;;;;;;;5.90;1.47;;;21.00;99.90;;;;;;5039229;28;19957;-53
2023/09/15 11:57:55;;;;;;;;;;;21.00;99.90;;;;;;5044118;28;20280;-54
2023/09/15 12:00:23;;;;;;;4.80;1.20;;;21.10;99.90;;;;;;5046852;28;20337;-50
2023/09/15 12:02:51;;;;;;;6.10;1.58;;;21.00;99.90;;;;;;5047494;28;20484;-54
2023/09/15 12:05:19;;;;;;;6.47;1.52;;;21.00;99.90;;;;;;5049044;28;20037;-52
2023/09/15 12:07:46;;;;;;;3.30;1.45;;;21.00;99.90;;;;;;5049825;28;20032;-54
2023/09/15 12:10:17;;;;;;;4.15;1.10;;;21.00;99.90;;;;;;5044047;28;20033;-52
2023/09/15 12:12:44;;;;;;;9.07;1.33;;;21.00;99.80;;;;;;5044597;28;20075;-50
2023/09/15 12:15:14;;;;;;;4.20;1.33;;;21.10;99.90;;;;;;5041582;28;20132;-54
2023/09/15 12:17:49;;;;;;;4.78;1.80;;;21.10;99.90;;;;;;5042100;28;20411;-53
2023/09/15 12:20:14;;;;;;;5.65;1.40;;;21.20;99.60;;;;;;5041644;28;20053;-53
2023/09/15 12:22:40;;;;;;;;;;;21.20;99.80;;;;;;5046609;28;20121;-50
2023/09/15 12:25:10;;;;;;;7.75;1.40;;;21.20;99.60;;;;;;5045395;28;20375;-51
2023/09/15 12:27:40;;;;;;;3.10;2.00;;;21.20;99.40;;;;;;5050480;28;20045;-51
2023/09/15 12:30:06;;;;;;;4.43;1.45;;;21.20;99.10;;;;;;5054698;28;20047;-54
2023/09/15 12:32:34;;;;;;;4.68;1.20;;;21.20;99.30;;;;;;5053732;28;20506;-53
2023/09/15 12:35:05;;;;;;;6.22;1.65;;;21.20;99.50;;;;;;5051837;28;20141;-51
2023/09/15 12:37:32;;;;;;;3.78;1.90;;;21.30;99.60;;;;;;5057667;28;20118;-54
2023/09/15 12:39:58;;;;;;;10.43;2.63;;;21.30;99.70;;;;;;5049892;28;20059;-54
2023/09/15 12:42:23;;;;;;;;;;;21.30;99.50;;;;;;5057164;28;20040;-53
2023/09/15 12:44:49;;;;;;;6.05;2.78;;;21.30;99.50;;;;;;5065542;28;19924;-50
2023/09/15 12:47:15;;;;;;;;;;;21.30;99.30;;;;;;5065947;28;20090;-53
2023/09/15 12:49:41;;;;;;;4.05;2.03;;;21.30;99.20;;;;;;5060516;28;19917;-53